createdAt,value
2019-03-28T00:01:15.304Z,51.85
2019-03-28T00:04:03.480Z,51.64
2019-03-28T00:06:51.703Z,51.94
2019-03-28T00:09:40.182Z,51.75
2019-03-28T00:12:28.002Z,51.81
2019-03-28T00:15:16.287Z,52.08
2019-03-28T00:18:04.420Z,52.77
2019-03-28T00:20:52.532Z,52.62
2019-03-28T00:23:58.113Z,52.90
2019-03-28T00:26:46.540Z,52.49
2019-03-28T00:29:34.515Z,52.89
2019-03-28T00:32:22.897Z,52.96
2019-03-28T00:35:10.640Z,53.16
2019-03-28T00:37:58.668Z,52.96
2019-03-28T00:40:47.169Z,53.09
2019-03-28T00:43:35.043Z,52.97
2019-03-28T00:46:23.058Z,53.05
2019-03-28T00:49:11.552Z,53.13
2019-03-28T00:51:59.619Z,53.64
2019-03-28T00:54:48.043Z,54.19
2019-03-28T00:57:36.178Z,53.68
2019-03-28T01:00:24.580Z,53.56
2019-03-28T01:03:12.518Z,53.63
2019-03-28T01:06:00.543Z,54.04
2019-03-28T01:08:48.646Z,53.97
2019-03-28T01:11:37.097Z,53.92
2019-03-28T01:14:25.502Z,54.06
2019-03-28T01:17:13.657Z,53.85
2019-03-28T01:20:01.524Z,53.87
2019-03-28T01:22:50.588Z,54.06
2019-03-28T01:25:38.700Z,54.08
2019-03-28T01:28:26.679Z,54.50
2019-03-28T01:31:14.953Z,54.40
2019-03-28T01:34:03.340Z,54.59
2019-03-28T01:36:51.300Z,54.96
2019-03-28T01:39:39.485Z,54.55
2019-03-28T01:42:27.542Z,54.85
2019-03-28T01:45:16.429Z,54.62
2019-03-28T01:48:04.595Z,55.24
2019-03-28T01:50:52.441Z,55.34
2019-03-28T01:53:40.781Z,55.09
2019-03-28T01:56:28.715Z,55.20
2019-03-28T01:59:16.677Z,54.87
2019-03-28T02:02:04.966Z,54.58
2019-03-28T02:04:53.391Z,54.62
2019-03-28T02:07:41.353Z,54.78
2019-03-28T02:10:29.385Z,54.65
2019-03-28T02:13:17.774Z,54.78
2019-03-28T02:16:06.018Z,55.19
2019-03-28T02:18:54.337Z,55.17
2019-03-28T02:21:42.703Z,55.34
2019-03-28T02:24:30.702Z,55.32
2019-03-28T02:27:24.399Z,55.21
2019-03-28T02:30:09.636Z,55.09
2019-03-28T02:32:57.572Z,55.33
2019-03-28T02:35:46.086Z,55.06
2019-03-28T02:38:34.464Z,55.31
2019-03-28T02:41:22.885Z,55.18
2019-03-28T02:44:11.900Z,55.30
2019-03-28T02:47:00.657Z,56.03
2019-03-28T02:49:50.810Z,55.85
2019-03-28T02:52:38.962Z,55.90
2019-03-28T02:55:26.824Z,55.65
2019-03-28T02:58:14.604Z,55.51
2019-03-28T03:01:02.891Z,55.60
2019-03-28T03:03:51.293Z,56.03
2019-03-28T03:06:39.743Z,55.68
2019-03-28T03:09:28.111Z,55.81
2019-03-28T03:12:16.274Z,55.79
2019-03-28T03:15:04.656Z,56.31
2019-03-28T03:17:53.050Z,56.79
2019-03-28T03:20:40.886Z,56.80
2019-03-28T03:23:28.872Z,56.88
2019-03-28T03:26:16.555Z,56.36
2019-03-28T03:29:04.684Z,57.19
2019-03-28T03:31:53.936Z,57.24
2019-03-28T03:34:42.087Z,56.77
2019-03-28T03:37:30.366Z,56.72
2019-03-28T03:40:19.020Z,57.01
2019-03-28T03:43:07.205Z,57.25
2019-03-28T03:45:55.126Z,57.13
2019-03-28T03:48:43.452Z,56.86
2019-03-28T03:51:31.258Z,57.15
2019-03-28T03:54:19.321Z,57.18
2019-03-28T03:57:07.843Z,57.69
2019-03-28T03:59:55.482Z,57.80
2019-03-28T04:02:43.390Z,57.42
2019-03-28T04:05:32.076Z,57.59
2019-03-28T04:08:20.101Z,57.58
2019-03-28T04:11:08.238Z,57.72
2019-03-28T04:13:56.616Z,57.59
2019-03-28T04:16:45.671Z,57.63
2019-03-28T04:19:33.555Z,57.90
2019-03-28T04:22:21.429Z,58.42
2019-03-28T04:25:09.811Z,58.07
2019-03-28T04:27:58.333Z,58.49
2019-03-28T04:30:46.753Z,58.33
2019-03-28T04:33:35.759Z,58.82
2019-03-28T04:36:23.841Z,58.63
2019-03-28T04:39:12.042Z,59.17
2019-03-28T04:42:00.070Z,59.07
2019-03-28T04:44:48.173Z,58.80
2019-03-28T04:47:36.369Z,58.87
2019-03-28T04:50:24.469Z,59.44
2019-03-28T04:53:12.542Z,59.21
2019-03-28T04:56:00.650Z,59.57
2019-03-28T04:58:49.349Z,59.50
2019-03-28T05:01:37.567Z,59.32
2019-03-28T05:04:25.569Z,60.12
2019-03-28T05:07:14.094Z,59.62
2019-03-28T05:10:02.059Z,60.05
2019-03-28T05:12:49.981Z,59.09
2019-03-28T05:15:38.011Z,59.53
2019-03-28T05:18:26.527Z,59.32
2019-03-28T05:21:14.820Z,59.15
2019-03-28T05:24:03.045Z,59.62
2019-03-28T05:26:51.206Z,59.45
2019-03-28T05:29:39.222Z,59.05
2019-03-28T05:32:27.186Z,59.30
2019-03-28T05:35:15.317Z,58.92
2019-03-28T05:38:04.184Z,59.36
2019-03-28T05:40:51.995Z,59.19
2019-03-28T05:43:39.719Z,59.84
2019-03-28T05:46:27.619Z,59.73
2019-03-28T05:49:15.376Z,59.24
2019-03-28T05:52:03.561Z,58.25
2019-03-28T05:54:51.614Z,56.37
2019-03-28T05:57:39.615Z,54.47
2019-03-28T06:00:27.878Z,53.11
2019-03-28T06:03:16.363Z,52.88
2019-03-28T06:06:04.718Z,52.62
2019-03-28T06:08:53.394Z,52.76
2019-03-28T06:11:42.058Z,53.35
2019-03-28T06:14:30.063Z,53.67
2019-03-28T06:17:18.055Z,54.10
2019-03-28T06:20:07.140Z,54.69
2019-03-28T06:22:55.092Z,54.37
2019-03-28T06:25:43.191Z,52.41
2019-03-28T06:28:30.822Z,50.86
2019-03-28T06:31:18.928Z,50.94
2019-03-28T06:34:07.312Z,51.10
2019-03-28T06:36:55.535Z,50.00
2019-03-28T06:39:43.751Z,49.35
2019-03-28T06:42:32.066Z,49.89
2019-03-28T06:45:20.025Z,49.82
2019-03-28T06:48:08.254Z,48.58
2019-03-28T06:50:56.133Z,49.19
2019-03-28T06:53:44.330Z,49.16
2019-03-28T06:56:32.593Z,50.96
2019-03-28T06:59:20.839Z,50.62
2019-03-28T07:02:09.083Z,49.83
2019-03-28T07:04:57.407Z,49.15
2019-03-28T07:07:45.311Z,46.75
2019-03-28T07:10:33.630Z,46.15
2019-03-28T07:13:21.539Z,48.21
2019-03-28T07:16:09.755Z,48.09
2019-03-28T07:18:58.068Z,47.24
2019-03-28T07:21:46.326Z,46.95
2019-03-28T07:24:34.707Z,46.51
2019-03-28T07:27:22.951Z,46.94
2019-03-28T07:30:12.550Z,45.20
2019-03-28T07:33:00.918Z,44.38
2019-03-28T07:35:49.273Z,43.47
2019-03-28T07:38:37.508Z,42.06
2019-03-28T07:41:25.753Z,43.12
2019-03-28T07:44:14.343Z,43.26
2019-03-28T07:47:01.997Z,41.71
2019-03-28T07:49:49.987Z,40.85
2019-03-28T07:52:38.375Z,44.19
2019-03-28T07:55:26.562Z,44.78
2019-03-28T07:58:14.675Z,44.37
2019-03-28T08:01:02.298Z,43.26
2019-03-28T08:03:51.608Z,43.71
2019-03-28T08:06:49.742Z,42.40
2019-03-28T08:09:36.500Z,43.83
2019-03-28T08:12:23.059Z,44.86
2019-03-28T08:15:10.254Z,42.25
2019-03-28T08:17:58.530Z,41.72
2019-03-28T08:20:46.414Z,43.79
2019-03-28T08:23:35.458Z,43.07
2019-03-28T08:26:24.206Z,41.65
2019-03-28T08:29:12.479Z,42.68
2019-03-28T08:32:01.312Z,42.96
2019-03-28T08:34:50.943Z,42.69
2019-03-28T08:37:40.660Z,40.65
2019-03-28T08:40:39.767Z,41.45
2019-03-28T08:43:26.772Z,41.58
2019-03-28T08:46:15.150Z,41.51
2019-03-28T08:49:03.722Z,41.16
2019-03-28T08:51:52.308Z,40.46
2019-03-28T08:54:40.321Z,40.18
2019-03-28T08:57:28.310Z,39.69
2019-03-28T09:00:17.334Z,39.61
2019-03-28T09:03:05.719Z,40.80
2019-03-28T09:05:53.759Z,41.21
2019-03-28T09:08:42.259Z,40.75
2019-03-28T09:11:30.779Z,40.19
2019-03-28T09:14:19.048Z,40.48
2019-03-28T09:17:06.728Z,40.35
2019-03-28T09:19:54.676Z,40.03
2019-03-28T09:22:42.580Z,40.69
2019-03-28T09:25:30.219Z,40.12
2019-03-28T09:28:17.778Z,39.13
2019-03-28T09:31:18.937Z,39.61
2019-03-28T09:33:55.822Z,39.07
2019-03-28T09:36:44.317Z,39.75
2019-03-28T09:39:32.660Z,39.34
2019-03-28T09:42:21.213Z,38.90
2019-03-28T09:45:09.633Z,37.89
2019-03-28T09:47:57.693Z,38.22
2019-03-28T09:50:45.608Z,38.04
2019-03-28T09:53:33.640Z,37.15
2019-03-28T09:56:21.721Z,37.39
2019-03-28T09:59:09.933Z,36.70
2019-03-28T10:01:57.971Z,36.72
2019-03-28T10:04:46.524Z,36.74
2019-03-28T10:07:34.490Z,36.52
2019-03-28T10:10:22.882Z,36.86
2019-03-28T10:13:10.846Z,36.08
2019-03-28T10:15:59.294Z,35.66
2019-03-28T10:18:47.535Z,35.71
2019-03-28T10:21:37.658Z,35.56
2019-03-28T10:24:25.524Z,35.03
2019-03-28T10:27:13.612Z,34.66
2019-03-28T10:30:02.637Z,34.43
2019-03-28T10:32:50.302Z,34.63
2019-03-28T10:35:38.484Z,34.77
2019-03-28T10:38:26.677Z,34.33
2019-03-28T10:41:14.990Z,35.08
2019-03-28T10:44:03.372Z,34.84
2019-03-28T10:46:51.595Z,35.29
2019-03-28T10:49:39.715Z,35.05
2019-03-28T10:52:27.566Z,34.17
2019-03-28T10:55:16.598Z,34.89
2019-03-28T10:58:17.657Z,34.91
2019-03-28T11:00:55.828Z,34.62
2019-03-28T11:03:44.430Z,34.81
2019-03-28T11:06:32.705Z,34.30
2019-03-28T11:09:20.834Z,33.95
2019-03-28T11:12:09.102Z,34.03
2019-03-28T11:14:56.864Z,33.88
2019-03-28T11:17:44.852Z,34.10
2019-03-28T11:20:33.254Z,33.96
2019-03-28T11:23:21.211Z,32.95
2019-03-28T11:26:09.381Z,33.25
2019-03-28T11:29:00.819Z,32.34
2019-03-28T11:31:51.929Z,32.32
2019-03-28T11:34:37.681Z,32.75
2019-03-28T11:37:26.844Z,32.60
2019-03-28T11:40:17.204Z,32.59
2019-03-28T11:43:05.380Z,32.44
2019-03-28T11:45:53.773Z,33.09
2019-03-28T11:48:41.610Z,32.12
2019-03-28T11:51:30.560Z,32.25
2019-03-28T11:54:18.692Z,31.84
2019-03-28T11:57:07.058Z,31.75
2019-03-28T11:59:57.981Z,31.96
2019-03-28T12:02:45.094Z,31.45
2019-03-28T12:05:33.065Z,31.59
2019-03-28T12:08:21.106Z,31.41
2019-03-28T12:11:09.505Z,31.39
2019-03-28T12:13:59.674Z,31.34
2019-03-28T12:16:49.781Z,31.37
2019-03-28T12:19:37.893Z,31.00
2019-03-28T12:22:25.861Z,31.29
2019-03-28T12:25:14.350Z,31.53
2019-03-28T12:28:02.595Z,31.34
2019-03-28T12:30:51.887Z,31.33
2019-03-28T12:33:39.715Z,31.23
2019-03-28T12:36:27.545Z,31.20
2019-03-28T12:39:16.011Z,30.90
2019-03-28T12:42:04.157Z,31.11
2019-03-28T12:44:57.368Z,30.92
2019-03-28T12:47:43.411Z,30.69
2019-03-28T12:50:30.958Z,30.45
2019-03-28T12:53:19.150Z,30.36
2019-03-28T12:56:07.077Z,30.01
2019-03-28T12:58:55.352Z,29.85
2019-03-28T13:01:43.875Z,30.18
2019-03-28T13:04:31.896Z,30.39
2019-03-28T13:07:20.570Z,30.29
2019-03-28T13:10:09.224Z,30.67
2019-03-28T13:12:58.996Z,30.70
2019-03-28T13:15:47.254Z,30.50
2019-03-28T13:18:36.157Z,30.63
2019-03-28T13:21:24.270Z,29.62
2019-03-28T13:24:11.886Z,29.72
2019-03-28T13:27:00.266Z,29.76
2019-03-28T13:29:49.185Z,30.12
2019-03-28T13:32:42.133Z,30.30
2019-03-28T13:35:26.826Z,29.74
2019-03-28T13:38:15.185Z,29.84
2019-03-28T13:41:03.407Z,29.81
2019-03-28T13:43:51.892Z,29.78
2019-03-28T13:46:40.169Z,29.89
2019-03-28T13:49:28.225Z,29.75
2019-03-28T13:52:16.522Z,30.06
2019-03-28T13:55:04.763Z,30.20
2019-03-28T13:57:53.381Z,30.09
2019-03-28T14:00:41.585Z,30.12
2019-03-28T14:03:29.571Z,30.29
2019-03-28T14:06:17.841Z,30.36
2019-03-28T14:09:07.343Z,30.23
2019-03-28T14:11:54.898Z,30.26
2019-03-28T14:14:42.756Z,29.72
2019-03-28T14:17:30.864Z,30.27
2019-03-28T14:20:22.228Z,30.43
2019-03-28T14:23:08.662Z,30.73
2019-03-28T14:25:56.359Z,29.60
2019-03-28T14:28:44.175Z,30.06
2019-03-28T14:31:32.183Z,30.33
2019-03-28T14:34:20.221Z,30.29
2019-03-28T14:37:07.852Z,30.97
2019-03-28T14:39:56.087Z,31.16
2019-03-28T14:42:44.587Z,31.44
2019-03-28T14:45:32.939Z,31.39
2019-03-28T14:48:21.485Z,31.41
2019-03-28T14:51:09.265Z,31.17
2019-03-28T14:53:57.626Z,30.62
2019-03-28T14:56:45.939Z,30.80
2019-03-28T14:59:34.669Z,30.97
2019-03-28T15:02:22.852Z,30.92
2019-03-28T15:05:10.637Z,30.35
2019-03-28T15:07:58.747Z,30.53
2019-03-28T15:10:46.716Z,30.70
2019-03-28T15:13:34.589Z,30.74
2019-03-28T15:16:22.774Z,30.61
2019-03-28T15:19:11.018Z,30.47
2019-03-28T15:21:59.432Z,30.58
2019-03-28T15:24:47.883Z,30.29
2019-03-28T15:27:36.201Z,30.59
2019-03-28T15:30:24.189Z,30.45
2019-03-28T15:33:12.679Z,30.55
2019-03-28T15:36:00.750Z,30.94
2019-03-28T15:38:51.072Z,30.87
2019-03-28T15:41:39.008Z,31.12
2019-03-28T15:44:26.993Z,31.38
2019-03-28T15:47:15.040Z,31.27
2019-03-28T15:50:03.682Z,31.04
2019-03-28T15:52:54.167Z,30.96
2019-03-28T15:55:42.650Z,30.71
2019-03-28T15:58:30.778Z,30.81
2019-03-28T16:01:18.410Z,30.75
2019-03-28T16:04:06.479Z,30.42
2019-03-28T16:06:54.489Z,30.70
2019-03-28T16:09:42.630Z,30.74
2019-03-28T16:12:30.635Z,30.62
2019-03-28T16:15:18.770Z,30.73
2019-03-28T16:18:06.504Z,30.30
2019-03-28T16:20:54.715Z,30.76
2019-03-28T16:23:42.416Z,31.02
2019-03-28T16:26:30.772Z,30.47
2019-03-28T16:29:19.317Z,30.77
2019-03-28T16:32:07.596Z,30.59
2019-03-28T16:34:55.856Z,31.09
2019-03-28T16:37:43.698Z,31.20
2019-03-28T16:40:31.766Z,30.94
2019-03-28T16:43:20.012Z,31.16
2019-03-28T16:46:08.477Z,31.05
2019-03-28T16:48:56.382Z,31.21
2019-03-28T16:51:44.132Z,31.35
2019-03-28T16:54:31.950Z,31.47
2019-03-28T16:57:20.296Z,31.92
2019-03-28T17:00:11.186Z,32.21
2019-03-28T17:02:59.175Z,32.66
2019-03-28T17:05:47.302Z,33.01
2019-03-28T17:08:35.490Z,33.37
2019-03-28T17:11:23.967Z,34.08
2019-03-28T17:14:11.930Z,34.38
2019-03-28T17:16:59.895Z,34.62
2019-03-28T17:19:48.414Z,34.81
2019-03-28T17:22:37.182Z,35.22
2019-03-28T17:25:25.483Z,35.50
2019-03-28T17:28:13.610Z,35.43
2019-03-28T17:31:02.209Z,35.63
2019-03-28T17:33:50.500Z,35.77
2019-03-28T17:36:38.953Z,36.03
2019-03-28T17:39:27.106Z,36.30
2019-03-28T17:42:15.044Z,36.33
2019-03-28T17:45:03.045Z,36.48
2019-03-28T17:47:51.134Z,36.76
2019-03-28T17:50:39.174Z,37.20
2019-03-28T17:53:27.526Z,37.14
2019-03-28T17:56:15.967Z,37.57
2019-03-28T17:59:04.419Z,37.79
2019-03-28T18:01:52.643Z,37.97
2019-03-28T18:04:47.848Z,38.17
2019-03-28T18:07:30.628Z,38.15
2019-03-28T18:10:19.037Z,38.38
2019-03-28T18:13:07.539Z,38.21
2019-03-28T18:15:55.758Z,38.52
2019-03-28T18:18:43.696Z,38.58
2019-03-28T18:21:31.954Z,38.73
2019-03-28T18:24:20.187Z,38.87
2019-03-28T18:27:08.946Z,39.32
2019-03-28T18:29:57.064Z,39.63
2019-03-28T18:32:45.334Z,39.57
2019-03-28T18:35:33.021Z,39.91
2019-03-28T18:38:21.099Z,39.82
2019-03-28T18:41:09.150Z,39.91
2019-03-28T18:43:57.076Z,40.34
2019-03-28T18:46:44.853Z,40.19
2019-03-28T18:49:33.018Z,40.25
2019-03-28T18:52:20.625Z,40.63
2019-03-28T18:55:09.580Z,40.74
2019-03-28T18:57:57.595Z,40.64
2019-03-28T19:00:48.057Z,41.12
2019-03-28T19:03:34.941Z,41.28
2019-03-28T19:06:22.683Z,41.49
2019-03-28T19:09:10.855Z,41.21
2019-03-28T19:11:59.155Z,41.70
2019-03-28T19:14:47.045Z,41.49
2019-03-28T19:17:35.254Z,41.76
2019-03-28T19:20:23.660Z,42.36
2019-03-28T19:23:11.714Z,42.11
2019-03-28T19:26:00.812Z,42.25
2019-03-28T19:28:48.619Z,42.21
2019-03-28T19:31:36.474Z,42.51
2019-03-28T19:37:26.701Z,43.32
2019-03-28T19:40:15.440Z,42.66
2019-03-28T19:43:03.442Z,42.86
2019-03-28T19:45:52.116Z,42.86
2019-03-28T19:48:41.887Z,43.03
2019-03-28T19:51:30.051Z,43.18
2019-03-28T19:54:17.766Z,43.33
2019-03-28T19:57:08.507Z,43.60
2019-03-28T19:59:58.627Z,43.53
2019-03-28T20:02:49.046Z,44.09
2019-03-28T20:05:47.347Z,44.10
2019-03-28T20:08:27.622Z,44.08
2019-03-28T20:11:15.320Z,44.10
2019-03-28T20:14:03.362Z,44.10
2019-03-28T20:16:51.876Z,44.27
2019-03-28T20:19:40.528Z,44.34
2019-03-28T20:22:28.808Z,44.69
2019-03-28T20:25:16.841Z,44.81
2019-03-28T20:28:04.971Z,44.65
2019-03-28T20:30:53.937Z,44.79
2019-03-28T20:33:42.325Z,45.07
2019-03-28T20:36:37.678Z,45.14
2019-03-28T20:39:20.020Z,45.18
2019-03-28T20:42:08.946Z,45.27
2019-03-28T20:44:57.207Z,45.61
2019-03-28T20:47:44.927Z,45.26
2019-03-28T20:50:33.383Z,45.51
2019-03-28T20:53:21.508Z,45.57
2019-03-28T20:56:09.655Z,45.80
2019-03-28T20:58:57.525Z,45.77
2019-03-28T21:01:46.092Z,45.91
2019-03-28T21:04:34.697Z,45.76
2019-03-28T21:07:23.021Z,45.89
2019-03-28T21:10:25.096Z,46.03
2019-03-28T21:13:13.051Z,46.16
2019-03-28T21:16:01.423Z,46.22
2019-03-28T21:18:49.965Z,46.38
2019-03-28T21:21:38.249Z,46.50
2019-03-28T21:24:26.343Z,46.67
2019-03-28T21:27:14.522Z,46.75
2019-03-28T21:30:03.442Z,46.76
2019-03-28T21:32:55.621Z,46.84
2019-03-28T21:35:41.136Z,46.83
2019-03-28T21:38:30.365Z,47.02
2019-03-28T21:41:18.315Z,47.23
2019-03-28T21:44:06.379Z,47.09
2019-03-28T21:46:54.474Z,47.34
2019-03-28T21:49:43.151Z,47.60
2019-03-28T21:52:31.459Z,47.68
2019-03-28T21:55:19.501Z,48.24
2019-03-28T21:58:07.693Z,48.11
2019-03-28T22:00:55.575Z,48.11
2019-03-28T22:03:43.448Z,48.05
2019-03-28T22:06:42.455Z,48.53
2019-03-28T22:09:21.166Z,48.77
2019-03-28T22:12:09.283Z,48.89
2019-03-28T22:14:57.589Z,48.88
2019-03-28T22:17:45.988Z,49.13
2019-03-28T22:20:33.986Z,49.03
2019-03-28T22:23:22.100Z,49.08
2019-03-28T22:26:10.734Z,49.42
2019-03-28T22:28:59.222Z,49.50
2019-03-28T22:31:47.113Z,49.65
2019-03-28T22:34:34.954Z,49.62
2019-03-28T22:37:22.858Z,49.63
2019-03-28T22:40:12.065Z,49.66
2019-03-28T22:43:00.126Z,49.74
2019-03-28T22:45:48.612Z,49.72
2019-03-28T22:48:36.829Z,49.97
2019-03-28T22:51:24.784Z,50.16
2019-03-28T22:54:12.790Z,50.11
2019-03-28T22:57:00.655Z,50.36
2019-03-28T22:59:48.783Z,50.21
2019-03-28T23:02:37.241Z,50.59
2019-03-28T23:05:25.552Z,50.69
2019-03-28T23:08:13.950Z,50.84
2019-03-28T23:11:02.065Z,50.90
2019-03-28T23:13:50.769Z,50.92
2019-03-28T23:16:38.277Z,51.09
2019-03-28T23:19:26.370Z,50.99
2019-03-28T23:22:14.439Z,51.05
2019-03-28T23:25:02.802Z,51.24
2019-03-28T23:27:51.043Z,51.33
2019-03-28T23:30:39.051Z,51.35
2019-03-28T23:33:27.074Z,51.70
2019-03-28T23:36:15.146Z,51.51
2019-03-28T23:39:04.272Z,51.75
2019-03-28T23:41:52.648Z,52.04
2019-03-28T23:44:40.519Z,52.00
2019-03-28T23:47:29.986Z,52.12
2019-03-28T23:50:18.460Z,52.32
2019-03-28T23:53:06.453Z,52.28
2019-03-28T23:55:54.484Z,52.41
2019-03-28T23:58:42.423Z,52.22
